Time;durP1;ratioP1;P1;durP2;ratioP2;P2;SDS_P1;SDS_P2;PMS_P1;PMS_P2;Temp;Humidity;BMP_temperature;BMP_pressure;BME280_temperature;BME280_humidity;BME280_pressure;Samples;Min_cycle;Max_cycle;Signal;HPM_P1;HPM_P2
2022/12/19 00:02:07;;;;;;;85.90;37.63;;;7.10;84.30;;;;;;7372397;19;20031;-81
2022/12/19 00:04:39;;;;;;;89.95;41.72;;;7.10;84.40;;;;;;7369544;19;20384;-80
2022/12/19 00:07:07;;;;;;;;;;;7.10;84.40;;;;;;7391032;19;20018;-81
2022/12/19 00:09:36;;;;;;;75.72;32.30;;;7.20;84.50;;;;;;7369659;19;19922;-81
2022/12/19 00:12:05;;;;;;;80.75;34.28;;;7.10;85.10;;;;;;7370737;19;20621;-81
2022/12/19 00:14:33;;;;;;;91.05;39.85;;;7.20;84.50;;;;;;7370142;19;20032;-81
2022/12/19 00:17:02;;;;;;;85.40;37.60;;;7.10;84.60;;;;;;7369441;19;20032;-81
2022/12/19 00:19:31;;;;;;;92.95;39.28;;;7.20;84.70;;;;;;7369865;19;20043;-80
2022/12/19 00:22:02;;;;;;;73.88;34.17;;;7.20;84.60;;;;;;7391819;19;20015;-82
2022/12/19 00:24:31;;;;;;;73.45;32.13;;;7.20;84.60;;;;;;7369940;19;20026;-81
2022/12/19 00:27:00;;;;;;;65.43;31.95;;;7.20;84.70;;;;;;7367867;19;20105;-81
2022/12/19 00:29:29;;;;;;;66.53;29.38;;;7.20;84.70;;;;;;7369912;19;20031;-81
2022/12/19 00:31:57;;;;;;;62.10;28.15;;;7.20;84.70;;;;;;7367501;19;20010;-81
2022/12/19 00:34:26;;;;;;;69.32;30.67;;;7.30;84.90;;;;;;7385604;19;20022;-79
2022/12/19 00:36:55;;;;;;;67.90;30.35;;;7.30;84.80;;;;;;7387272;19;20133;-82
2022/12/19 00:39:26;;;;;;;62.33;29.38;;;7.30;84.80;;;;;;7370600;19;20097;-82
2022/12/19 00:41:55;;;;;;;65.70;29.42;;;7.30;84.50;;;;;;7370014;19;20017;-81
2022/12/19 00:44:24;;;;;;;72.82;30.23;;;7.30;84.50;;;;;;7364213;19;20014;-82
2022/12/19 00:46:52;;;;;;;73.68;30.77;;;7.30;84.20;;;;;;7365240;19;20070;-82
2022/12/19 00:49:21;;;;;;;82.22;34.03;;;7.30;84.10;;;;;;7387828;19;20015;-82
2022/12/19 00:51:50;;;;;;;82.38;32.50;;;7.30;84.00;;;;;;7366346;19;20106;-82
2022/12/19 00:54:19;;;;;;;65.85;30.23;;;7.20;83.80;;;;;;7372962;19;20018;-82
2022/12/19 00:56:50;;;;;;;100.30;35.72;;;7.20;83.90;;;;;;7373261;19;20030;-82
2022/12/19 00:59:19;;;;;;;85.47;33.70;;;7.20;84.00;;;;;;7373339;19;20030;-82
2022/12/19 01:01:48;;;;;;;77.38;33.38;;;7.20;84.00;;;;;;7375137;19;20014;-82
2022/12/19 01:04:17;;;;;;;68.28;30.67;;;7.20;84.00;;;;;;7395563;19;20031;-82
2022/12/19 01:06:46;;;;;;;57.20;27.52;;;7.20;84.10;;;;;;7371879;19;20755;-82
2022/12/19 01:09:15;;;;;;;61.03;28.02;;;7.20;84.10;;;;;;7371973;19;20113;-81
2022/12/19 01:14:28;;;;;;;56.17;25.95;;;7.20;84.30;;;;;;7370959;19;20022;-82
2022/12/19 01:16:56;;;;;;;;;;;7.20;84.40;;;;;;7374304;19;20030;-81
2022/12/19 01:19:25;;;;;;;56.03;24.10;;;7.30;84.60;;;;;;7400520;19;19926;-82
2022/12/19 01:21:54;;;;;;;59.08;26.10;;;7.30;84.50;;;;;;7397637;19;20018;-81
2022/12/19 01:24:23;;;;;;;52.45;26.45;;;7.30;84.60;;;;;;7383998;19;20372;-82
2022/12/19 01:26:52;;;;;;;51.53;25.50;;;7.30;84.70;;;;;;7371903;19;20110;-82
2022/12/19 01:29:20;;;;;;;56.90;27.13;;;7.30;84.80;;;;;;7370858;19;20089;-82
2022/12/19 01:31:52;;;;;;;58.22;26.27;;;7.30;84.70;;;;;;7369985;19;20043;-82
2022/12/19 01:34:20;;;;;;;52.90;25.85;;;7.40;84.70;;;;;;7394604;19;20730;-82
2022/12/19 01:36:49;;;;;;;59.38;25.20;;;7.40;84.70;;;;;;7373969;19;20102;-82
2022/12/19 01:39:18;;;;;;;52.67;26.13;;;7.40;84.80;;;;;;7371438;19;20023;-82
2022/12/19 01:41:47;;;;;;;58.28;26.58;;;7.40;85.00;;;;;;7370829;19;20118;-82
2022/12/19 01:44:16;;;;;;;56.03;26.08;;;7.40;84.90;;;;;;7372520;19;20090;-82
2022/12/19 01:46:47;;;;;;;56.17;25.27;;;7.40;85.00;;;;;;7370361;19;20100;-81
2022/12/19 01:49:25;;;;;;;54.08;24.27;;;7.50;85.00;;;;;;7392159;19;20093;-82
2022/12/19 01:51:57;;;;;;;51.33;25.02;;;7.50;85.00;;;;;;7371152;19;20049;-82
2022/12/19 01:54:30;;;;;;;58.63;25.92;;;7.50;85.00;;;;;;7372496;19;20029;-83
2022/12/19 01:57:01;;;;;;;54.15;24.00;;;7.50;85.00;;;;;;7374361;19;20039;-82
2022/12/19 01:59:33;;;;;;;57.70;23.52;;;7.50;85.00;;;;;;7374952;19;20019;-83
2022/12/19 02:02:10;;;;;;;46.95;21.52;;;7.50;85.00;;;;;;7374370;19;20021;-82
2022/12/19 02:04:45;;;;;;;40.53;21.17;;;7.50;85.00;;;;;;7370263;19;20048;-82
2022/12/19 02:07:15;;;;;;;41.03;21.02;;;7.50;85.00;;;;;;7395672;19;20018;-82
2022/12/19 02:09:45;;;;;;;45.80;22.08;;;7.60;85.10;;;;;;7373538;19;20015;-82
2022/12/19 02:12:14;;;;;;;52.63;23.65;;;7.60;85.10;;;;;;7371892;19;20014;-82
2022/12/19 02:14:43;;;;;;;57.20;24.67;;;7.60;85.00;;;;;;7374182;19;20082;-82
2022/12/19 02:17:21;;;;;;;40.45;19.73;;;7.60;84.80;;;;;;7372942;19;20755;-83
2022/12/19 02:20:46;;;;;;;36.70;18.58;;;7.60;84.70;;;;;;7372665;19;20014;-82
2022/12/19 02:23:41;;;;;;;35.15;17.75;;;7.60;85.10;;;;;;7372179;19;20082;-82
2022/12/19 02:26:38;;;;;;;37.28;19.20;;;7.60;85.10;;;;;;7374010;19;20014;-83
2022/12/19 02:29:31;;;;;;;46.53;21.80;;;7.60;85.10;;;;;;7374400;19;20098;-83
2022/12/19 02:32:07;;;;;;;47.22;23.25;;;7.60;85.00;;;;;;7374397;19;20014;-82
2022/12/19 02:34:41;;;;;;;49.30;22.85;;;7.60;84.70;;;;;;7373871;19;20022;-82
2022/12/19 02:37:15;;;;;;;41.03;21.65;;;7.60;84.50;;;;;;7395542;19;20089;-82
2022/12/19 02:39:50;;;;;;;48.08;23.65;;;7.60;84.50;;;;;;7372196;19;20022;-83
2022/12/19 02:42:24;;;;;;;48.25;22.65;;;7.60;84.60;;;;;;7371087;19;20018;-82
2022/12/19 02:44:54;;;;;;;43.47;21.25;;;7.60;84.70;;;;;;7384098;19;20015;-82
2022/12/19 02:47:26;;;;;;;41.42;20.90;;;7.60;84.80;;;;;;7402668;19;20007;-82
2022/12/19 02:49:55;;;;;;;47.13;23.25;;;7.60;84.90;;;;;;7395641;19;20010;-82
2022/12/19 02:52:49;;;;;;;43.40;21.83;;;7.70;84.80;;;;;;7393611;19;20085;-83
2022/12/19 02:55:21;;;;;;;40.20;19.67;;;7.60;85.00;;;;;;7374118;19;20022;-82
2022/12/19 02:58:26;;;;;;;35.42;16.15;;;7.70;85.00;;;;;;7373802;19;20042;-81
2022/12/19 03:01:01;;;;;;;30.02;14.05;;;7.70;85.20;;;;;;7370783;19;20026;-82
2022/12/19 03:03:45;;;;;;;28.80;14.98;;;7.70;85.50;;;;;;7371833;19;20094;-82
2022/12/19 03:06:22;;;;;;;27.05;14.07;;;7.80;86.60;;;;;;7372317;19;21127;-82
2022/12/19 03:08:57;;;;;;;27.27;13.73;;;7.80;85.80;;;;;;7372219;19;20152;-82
2022/12/19 03:11:28;;;;;;;27.90;13.57;;;7.90;86.10;;;;;;7373209;19;20907;-82
2022/12/19 03:14:00;;;;;;;32.38;15.13;;;7.90;86.20;;;;;;7373435;19;20023;-82
2022/12/19 03:16:29;;;;;;;27.13;13.70;;;7.90;86.20;;;;;;7371050;19;20081;-80
2022/12/19 03:19:01;;;;;;;24.58;12.40;;;8.00;86.30;;;;;;7394243;19;20085;-82
2022/12/19 03:21:36;;;;;;;24.48;11.98;;;8.00;86.30;;;;;;7371586;19;20093;-82
2022/12/19 03:24:06;;;;;;;23.75;11.98;;;8.00;86.60;;;;;;7372526;19;20454;-82
2022/12/19 03:26:39;;;;;;;28.48;13.07;;;8.00;86.60;;;;;;7375117;19;20037;-82
2022/12/19 03:29:14;;;;;;;24.55;13.30;;;8.10;86.60;;;;;;7371629;19;20493;-82
2022/12/19 03:31:45;;;;;;;31.50;14.48;;;8.10;86.50;;;;;;7373747;19;20090;-82
2022/12/19 03:34:20;;;;;;;29.42;14.40;;;8.10;86.30;;;;;;7392796;19;20114;-82
2022/12/19 03:36:51;;;;;;;23.38;12.32;;;8.10;86.20;;;;;;7370775;19;20057;-82
2022/12/19 03:39:22;;;;;;;35.65;14.68;;;8.10;86.10;;;;;;7372454;19;20011;-81
2022/12/19 03:44:38;;;;;;;25.35;14.27;;;8.10;86.20;;;;;;7372097;19;20018;-82
2022/12/19 03:47:14;;;;;;;30.58;13.82;;;8.10;86.10;;;;;;7370217;19;20102;-82
2022/12/19 03:49:46;;;;;;;30.02;14.75;;;8.10;86.30;;;;;;7371973;19;20022;-82
2022/12/19 03:52:25;;;;;;;26.00;13.25;;;8.20;86.40;;;;;;7392505;19;20110;-83
2022/12/19 03:55:02;;;;;;;27.63;14.98;;;8.20;86.50;;;;;;7371925;19;20035;-83
2022/12/19 03:57:35;;;;;;;30.13;14.77;;;8.20;86.60;;;;;;7372842;19;20738;-83
2022/12/19 04:00:07;;;;;;;24.30;14.20;;;8.20;86.60;;;;;;7370948;19;20019;-82
2022/12/19 04:02:39;;;;;;;27.77;13.98;;;8.20;86.60;;;;;;7371392;19;20025;-81
2022/12/19 04:05:16;;;;;;;24.65;13.57;;;8.20;86.60;;;;;;7371507;19;20015;-82
2022/12/19 04:07:46;;;;;;;33.13;14.75;;;8.20;86.60;;;;;;7376351;19;20298;-82
2022/12/19 04:10:19;;;;;;;27.73;13.27;;;8.30;87.40;;;;;;7411878;19;20419;-81
2022/12/19 04:12:52;;;;;;;31.10;13.88;;;8.30;86.40;;;;;;7392704;19;20015;-81
2022/12/19 04:15:26;;;;;;;25.83;13.25;;;8.30;86.40;;;;;;7370000;19;20144;-81
2022/12/19 04:17:59;;;;;;;27.33;13.80;;;8.30;86.40;;;;;;7371097;19;20022;-81
2022/12/19 04:20:31;;;;;;;23.10;13.55;;;8.30;86.50;;;;;;7370876;19;20077;-80
2022/12/19 04:23:05;;;;;;;25.77;13.98;;;8.30;86.40;;;;;;7371033;19;20006;-81
2022/12/19 04:25:37;;;;;;;28.80;14.48;;;8.30;86.40;;;;;;7368786;19;20038;-80
2022/12/19 04:28:11;;;;;;;25.45;13.77;;;8.30;86.40;;;;;;7392129;19;20521;-81
2022/12/19 04:30:43;;;;;;;28.70;13.75;;;8.30;86.40;;;;;;7374752;19;20035;-81
2022/12/19 04:33:13;;;;;;;28.80;14.35;;;8.30;86.30;;;;;;7382137;19;20060;-82
2022/12/19 04:35:45;;;;;;;31.30;14.52;;;8.40;86.30;;;;;;7378379;19;20093;-81
2022/12/19 04:38:14;;;;;;;25.17;13.15;;;8.30;86.20;;;;;;7376938;19;20018;-81
2022/12/19 04:40:43;;;;;;;27.58;13.57;;;8.40;86.30;;;;;;7376611;19;20066;-81
2022/12/19 04:43:11;;;;;;;23.98;12.95;;;8.40;86.20;;;;;;7399528;19;20093;-81
2022/12/19 04:45:42;;;;;;;28.23;14.00;;;8.40;86.20;;;;;;7374423;19;20083;-81
2022/12/19 04:48:11;;;;;;;28.05;15.00;;;8.40;86.20;;;;;;7377737;19;20013;-81
2022/12/19 04:50:39;;;;;;;32.50;13.98;;;8.40;86.20;;;;;;7374912;19;20786;-81
2022/12/19 04:53:11;;;;;;;31.98;15.55;;;8.40;86.10;;;;;;7376249;19;20029;-81
2022/12/19 04:55:40;;;;;;;41.08;15.23;;;8.40;86.10;;;;;;7375650;19;20039;-81
2022/12/19 04:58:12;;;;;;;32.47;14.63;;;8.40;86.10;;;;;;7398013;19;20038;-81
2022/12/19 05:00:41;;;;;;;28.95;14.52;;;8.40;86.00;;;;;;7375466;19;20044;-82
2022/12/19 05:03:10;;;;;;;25.75;13.57;;;8.40;86.10;;;;;;7377251;19;20094;-82
2022/12/19 05:05:38;;;;;;;23.83;13.30;;;8.40;86.00;;;;;;7376896;19;20018;-81
2022/12/19 05:08:07;;;;;;;25.85;13.73;;;8.40;85.90;;;;;;7378040;19;20011;-81
2022/12/19 05:10:39;;;;;;;26.30;14.30;;;8.40;85.90;;;;;;7377593;19;20014;-81
2022/12/19 05:13:08;;;;;;;26.70;14.05;;;8.40;86.00;;;;;;7400319;19;20010;-81
2022/12/19 05:15:37;;;;;;;28.67;14.60;;;8.50;86.00;;;;;;7374762;19;20018;-81
2022/12/19 05:18:06;;;;;;;26.08;13.80;;;8.40;85.90;;;;;;7376948;19;20018;-81
2022/12/19 05:20:35;;;;;;;34.25;16.35;;;8.40;86.00;;;;;;7380466;19;20014;-81
2022/12/19 05:23:04;;;;;;;35.22;15.68;;;8.40;86.00;;;;;;7379601;19;20310;-81
2022/12/19 05:25:33;;;;;;;35.30;14.35;;;8.50;85.90;;;;;;7375912;19;20037;-81
2022/12/19 05:28:04;;;;;;;33.10;14.68;;;8.50;86.10;;;;;;7399964;19;20473;-82
2022/12/19 05:30:33;;;;;;;31.58;16.10;;;8.50;86.00;;;;;;7382242;19;20019;-81
2022/12/19 05:33:02;;;;;;;29.92;14.07;;;8.50;85.90;;;;;;7384359;19;20007;-81
2022/12/19 05:35:31;;;;;;;27.10;13.90;;;8.50;85.90;;;;;;7388689;19;20014;-82
2022/12/19 05:38:00;;;;;;;31.70;15.10;;;8.50;85.90;;;;;;7384135;19;20022;-81
2022/12/19 05:40:29;;;;;;;30.65;13.43;;;8.50;85.80;;;;;;7378632;19;20015;-81
2022/12/19 05:42:57;;;;;;;32.15;15.23;;;8.50;85.90;;;;;;7397052;19;20018;-81
2022/12/19 05:45:29;;;;;;;29.08;14.48;;;8.50;85.80;;;;;;7376414;19;20020;-81
2022/12/19 05:47:58;;;;;;;;;;;8.50;86.00;;;;;;7376645;19;20046;-81
2022/12/19 05:50:26;;;;;;;25.75;14.05;;;8.60;86.10;;;;;;7376311;19;20243;-81
2022/12/19 05:52:55;;;;;;;29.65;15.13;;;8.50;85.70;;;;;;7374932;19;20018;-82
2022/12/19 05:55:24;;;;;;;31.17;14.18;;;8.50;85.70;;;;;;7398806;19;20014;-81
2022/12/19 05:57:53;;;;;;;31.92;14.27;;;8.50;85.70;;;;;;7377183;19;20680;-82
2022/12/19 06:00:22;;;;;;;27.23;14.70;;;8.50;85.80;;;;;;7376420;19;20048;-82
2022/12/19 06:02:54;;;;;;;31.42;14.50;;;8.50;85.80;;;;;;7377986;19;20040;-81
2022/12/19 06:05:22;;;;;;;27.15;14.23;;;8.50;85.80;;;;;;7377594;19;20034;-82
2022/12/19 06:07:51;;;;;;;32.78;14.70;;;8.60;85.90;;;;;;7376841;19;20078;-82
2022/12/19 06:10:20;;;;;;;30.58;14.88;;;8.60;86.70;;;;;;7405578;19;20022;-82
2022/12/19 06:12:49;;;;;;;31.55;15.55;;;8.60;85.90;;;;;;7373670;19;20373;-82
2022/12/19 06:15:18;;;;;;;30.65;15.23;;;8.60;86.00;;;;;;7372045;19;20139;-82
2022/12/19 06:17:47;;;;;;;33.13;15.90;;;8.60;86.00;;;;;;7375143;19;20019;-82
2022/12/19 06:20:18;;;;;;;28.10;14.70;;;8.60;86.00;;;;;;7376471;19;20125;-82
2022/12/19 06:22:47;;;;;;;32.25;14.85;;;8.60;86.00;;;;;;7372971;19;20031;-81
2022/12/19 06:25:16;;;;;;;32.08;15.23;;;8.60;86.00;;;;;;7397004;19;20375;-82
2022/12/19 06:27:45;;;;;;;38.78;16.20;;;8.60;86.00;;;;;;7373926;19;20022;-82
2022/12/19 06:30:15;;;;;;;28.48;14.30;;;8.60;86.00;;;;;;7378101;19;20020;-82
2022/12/19 06:32:43;;;;;;;44.10;17.27;;;8.60;86.00;;;;;;7376200;19;20057;-82
2022/12/19 06:35:12;;;;;;;36.08;17.45;;;8.60;85.90;;;;;;7372629;19;20775;-81
2022/12/19 06:37:44;;;;;;;39.95;16.25;;;8.60;85.90;;;;;;7374429;19;20971;-81
2022/12/19 06:42:21;;;;;;;;;;;8.60;85.80;;;;;;7394590;19;20462;-81
2022/12/19 06:43:00;;;;;;;39.60;15.98;;;8.70;85.80;;;;;;7372716;19;19918;-82
2022/12/19 06:45:29;;;;;;;43.42;15.68;;;8.70;85.50;;;;;;7371444;19;20067;-82
2022/12/19 06:47:58;;;;;;;38.20;15.73;;;8.60;85.50;;;;;;7372105;19;20496;-82
2022/12/19 06:50:27;;;;;;;40.42;15.88;;;8.60;85.60;;;;;;7371808;19;20599;-81
2022/12/19 06:52:58;;;;;;;36.38;15.05;;;8.60;85.80;;;;;;7372073;19;20046;-81
2022/12/19 06:55:27;;;;;;;37.75;17.23;;;8.60;85.80;;;;;;7389014;19;20014;-80
2022/12/19 06:57:56;;;;;;;45.17;19.10;;;8.60;85.80;;;;;;7415219;19;20027;-82
2022/12/19 07:00:24;;;;;;;43.30;17.88;;;8.60;85.80;;;;;;7384558;19;20022;-81
2022/12/19 07:02:54;;;;;;;34.53;15.68;;;8.60;85.80;;;;;;7371701;19;20033;-81
2022/12/19 07:05:24;;;;;;;39.17;17.38;;;8.60;85.80;;;;;;7373279;19;20085;-81
2022/12/19 07:07:52;;;;;;;44.85;19.20;;;8.60;85.90;;;;;;7373292;19;20580;-81
2022/12/19 07:10:24;;;;;;;37.42;15.95;;;8.70;85.90;;;;;;7395556;19;20454;-82
2022/12/19 07:12:52;;;;;;;40.50;16.83;;;8.70;86.00;;;;;;7396898;19;20027;-82
2022/12/19 07:15:21;;;;;;;35.28;15.77;;;8.70;85.90;;;;;;7401123;19;20460;-80
2022/12/19 07:17:50;;;;;;;45.63;17.95;;;8.70;85.90;;;;;;7384015;19;20893;-81
2022/12/19 07:20:21;;;;;;;26.08;14.48;;;8.70;85.90;;;;;;7385077;19;20493;-81
2022/12/19 07:22:50;;;;;;;44.43;17.93;;;8.70;85.90;;;;;;7372344;19;20142;-81
2022/12/19 07:25:19;;;;;;;32.80;15.73;;;8.70;85.90;;;;;;7394611;19;20362;-81
2022/12/19 07:27:51;;;;;;;35.33;17.73;;;8.70;85.80;;;;;;7371490;19;20031;-82
2022/12/19 07:30:20;;;;;;;45.50;16.90;;;8.70;85.90;;;;;;7373720;19;20101;-82
2022/12/19 07:32:49;;;;;;;38.80;17.20;;;8.70;85.80;;;;;;7382723;19;20022;-83
2022/12/19 07:35:21;;;;;;;40.42;18.40;;;8.70;85.80;;;;;;7389317;19;20018;-82
2022/12/19 07:37:50;;;;;;;35.17;17.35;;;8.70;85.70;;;;;;7383067;19;20354;-82
2022/12/19 07:40:20;;;;;;;39.00;17.85;;;8.70;85.70;;;;;;7397452;19;20030;-83
2022/12/19 07:42:51;;;;;;;49.20;17.88;;;8.60;85.60;;;;;;7370537;19;20048;-83
2022/12/19 07:45:20;;;;;;;41.60;17.05;;;8.60;85.50;;;;;;7369475;19;20063;-82
2022/12/19 07:47:48;;;;;;;43.78;18.63;;;8.60;85.60;;;;;;7371133;19;20082;-82
2022/12/19 07:50:17;;;;;;;40.85;18.35;;;8.70;85.80;;;;;;7371608;19;20498;-82
2022/12/19 07:52:46;;;;;;;40.95;17.77;;;8.70;85.80;;;;;;7369399;19;21000;-82
2022/12/19 07:55:15;;;;;;;41.08;19.90;;;8.70;85.80;;;;;;7393053;19;20047;-82
2022/12/19 07:57:43;;;;;;;42.45;20.88;;;8.70;85.80;;;;;;7370548;19;20010;-82
2022/12/19 08:00:16;;;;;;;39.25;18.17;;;8.70;85.90;;;;;;7371332;19;20014;-83
2022/12/19 08:02:45;;;;;;;46.33;22.10;;;8.70;85.90;;;;;;7371112;19;20022;-82
2022/12/19 08:05:14;;;;;;;38.13;20.35;;;8.70;85.90;;;;;;7374687;19;20021;-84
2022/12/19 08:07:43;;;;;;;47.75;20.65;;;8.70;86.00;;;;;;7370869;19;20015;-83
2022/12/19 08:10:13;;;;;;;48.03;20.75;;;8.70;86.90;;;;;;7393447;19;20058;-87
2022/12/19 08:12:42;;;;;;;44.45;21.90;;;8.70;86.10;;;;;;7368849;19;20083;-83
2022/12/19 08:15:12;;;;;;;42.75;20.25;;;8.70;86.10;;;;;;7370778;19;20032;-88
2022/12/19 08:17:43;;;;;;;54.35;23.95;;;8.80;86.20;;;;;;7375750;19;20015;-87
2022/12/19 08:20:13;;;;;;;46.45;21.38;;;8.80;86.30;;;;;;7397714;19;20007;-85
2022/12/19 08:22:42;;;;;;;44.15;20.60;;;8.80;86.30;;;;;;7398272;19;20011;-86
2022/12/19 08:25:12;;;;;;;38.00;19.15;;;8.80;86.30;;;;;;7401178;19;20024;-84
2022/12/19 08:27:41;;;;;;;37.67;18.20;;;8.80;86.30;;;;;;7371747;19;20014;-85
2022/12/19 08:30:12;;;;;;;43.55;19.00;;;8.90;86.30;;;;;;7370399;19;20018;-86
2022/12/19 08:32:44;;;;;;;39.13;17.08;;;8.90;86.30;;;;;;7373125;19;20033;-84
2022/12/19 08:35:13;;;;;;;33.47;17.83;;;8.90;86.10;;;;;;7375382;19;20475;-84
2022/12/19 08:37:42;;;;;;;34.53;18.10;;;8.90;86.10;;;;;;7369965;19;20074;-82
2022/12/19 08:40:11;;;;;;;34.20;19.08;;;8.90;86.10;;;;;;7390476;19;20328;-83
2022/12/19 08:42:40;;;;;;;40.67;17.48;;;8.90;86.10;;;;;;7368073;19;20102;-86
2022/12/19 08:45:10;;;;;;;30.08;15.65;;;8.90;86.20;;;;;;7367928;19;20025;-83
2022/12/19 08:47:39;;;;;;;42.30;20.15;;;8.90;86.20;;;;;;7370884;19;20023;-80
2022/12/19 08:50:11;;;;;;;39.15;18.50;;;9.00;86.30;;;;;;7364701;19;20024;-83
2022/12/19 08:52:40;;;;;;;37.90;17.15;;;9.00;86.30;;;;;;7365749;19;20022;-82
2022/12/19 08:55:10;;;;;;;26.95;14.85;;;9.00;86.30;;;;;;7389718;19;20029;-81
2022/12/19 08:57:39;;;;;;;29.08;14.05;;;9.00;86.30;;;;;;7377517;19;20053;-85
2022/12/19 09:00:09;;;;;;;25.67;13.00;;;9.00;86.30;;;;;;7370445;19;20694;-81
2022/12/19 09:02:38;;;;;;;26.15;13.70;;;9.10;86.30;;;;;;7369877;19;20018;-80
2022/12/19 09:05:11;;;;;;;33.28;14.05;;;9.10;86.20;;;;;;7365310;19;20022;-81
2022/12/19 09:07:39;;;;;;;28.15;13.48;;;9.10;86.10;;;;;;7368388;19;20021;-82
2022/12/19 09:10:09;;;;;;;23.20;13.07;;;9.10;86.10;;;;;;7386019;19;20083;-82
2022/12/19 09:12:38;;;;;;;102.25;13.45;;;9.10;86.00;;;;;;7367191;19;20011;-83
2022/12/19 09:15:07;;;;;;;20.73;11.13;;;9.10;86.00;;;;;;7372722;19;20015;-81
2022/12/19 09:17:36;;;;;;;23.23;11.30;;;9.20;86.10;;;;;;7373313;19;20129;-82
2022/12/19 09:20:05;;;;;;;16.52;9.35;;;9.20;86.30;;;;;;7373896;19;20078;-82
2022/12/19 09:22:36;;;;;;;17.30;8.98;;;9.20;86.20;;;;;;7375581;19;20086;-78
2022/12/19 09:25:06;;;;;;;16.92;8.43;;;9.20;86.20;;;;;;7393416;19;20039;-82
2022/12/19 09:27:35;;;;;;;14.07;7.32;;;9.30;86.10;;;;;;7372674;19;20082;-81
2022/12/19 09:30:03;;;;;;;14.50;7.65;;;9.30;86.00;;;;;;7373731;19;20081;-79
2022/12/19 09:32:32;;;;;;;16.90;8.23;;;9.40;86.00;;;;;;7373938;19;20018;-82
2022/12/19 09:35:01;;;;;;;13.48;7.25;;;9.40;85.90;;;;;;7372952;19;20040;-82
2022/12/19 09:37:30;;;;;;;11.98;6.85;;;9.40;85.70;;;;;;7370740;19;20018;-79
2022/12/19 09:40:02;;;;;;;10.32;6.43;;;9.40;85.70;;;;;;7396191;19;20039;-81
2022/12/19 09:43:03;;;;;;;10.27;5.75;;;9.50;85.70;;;;;;7373605;19;20022;-81
2022/12/19 09:45:51;;;;;;;12.60;6.57;;;9.50;85.70;;;;;;7377600;19;20023;-81
2022/12/19 09:48:20;;;;;;;17.33;5.75;;;9.60;85.30;;;;;;7389313;19;20018;-80
2022/12/19 09:50:56;;;;;;;11.52;5.43;;;9.60;84.70;;;;;;7391515;19;20042;-84
2022/12/19 09:53:29;;;;;;;9.27;5.43;;;9.60;84.70;;;;;;7392133;19;20018;-80
2022/12/19 09:56:03;;;;;;;11.52;5.43;;;9.70;84.50;;;;;;7399436;19;20025;-81
2022/12/19 09:58:39;;;;;;;9.63;5.30;;;9.70;84.20;;;;;;7396459;19;20026;-81
2022/12/19 10:01:21;;;;;;;13.00;5.65;;;9.70;84.10;;;;;;7413937;19;20085;-82
2022/12/19 10:03:56;;;;;;;11.52;4.82;;;9.80;84.00;;;;;;7375653;19;20014;-80
2022/12/19 10:06:25;;;;;;;10.18;4.53;;;9.80;83.80;;;;;;7376102;19;20449;-83
2022/12/19 10:08:54;;;;;;;12.50;5.68;;;9.80;83.60;;;;;;7375109;19;20014;-81
2022/12/19 10:11:43;;;;;;;9.52;5.20;;;9.90;83.60;;;;;;7373120;19;20090;-81
2022/12/19 10:14:30;;;;;;;8.85;4.63;;;9.90;83.60;;;;;;7371071;19;20362;-82
2022/12/19 10:17:08;;;;;;;11.65;4.65;;;9.90;83.50;;;;;;7374112;19;20019;-81
2022/12/19 10:19:47;;;;;;;8.70;4.80;;;10.00;83.40;;;;;;7372520;19;20470;-82
2022/12/19 10:22:26;;;;;;;13.25;4.70;;;10.10;83.40;;;;;;7375433;19;20150;-84
2022/12/19 10:25:13;;;;;;;8.38;4.20;;;10.10;83.30;;;;;;7398337;19;20060;-81
2022/12/19 10:27:49;;;;;;;9.25;3.78;;;10.10;82.90;;;;;;7375467;19;20054;-84
2022/12/19 10:30:21;;;;;;;8.63;4.28;;;10.20;82.90;;;;;;7370534;19;20042;-83
2022/12/19 10:33:01;;;;;;;9.70;4.47;;;10.20;82.70;;;;;;7375160;19;20020;-83
2022/12/19 10:35:34;;;;;;;7.85;4.43;;;10.20;82.40;;;;;;7375194;19;20622;-81
2022/12/19 10:38:16;;;;;;;9.27;4.07;;;10.30;82.30;;;;;;7370072;19;20090;-81
2022/12/19 10:40:49;;;;;;;9.52;4.13;;;10.30;82.30;;;;;;7375717;19;20078;-85
2022/12/19 10:43:28;;;;;;;7.68;3.85;;;10.30;82.00;;;;;;7375465;19;20042;-83
2022/12/19 10:46:01;;;;;;;9.35;4.28;;;10.30;82.70;;;;;;7396055;19;20117;-83
2022/12/19 10:48:31;;;;;;;8.20;4.03;;;10.40;81.70;;;;;;7372011;19;20681;-84
2022/12/19 10:51:00;;;;;;;10.60;4.28;;;10.40;81.70;;;;;;7372901;19;20040;-86
2022/12/19 10:53:30;;;;;;;7.90;3.78;;;10.50;81.70;;;;;;7374363;19;20018;-83
2022/12/19 10:56:03;;;;;;;7.45;4.15;;;10.50;81.60;;;;;;7373725;19;20022;-84
2022/12/19 10:58:39;;;;;;;7.40;3.67;;;10.50;81.60;;;;;;7371452;19;20014;-84
2022/12/19 11:01:14;;;;;;;7.43;4.20;;;10.50;81.70;;;;;;7393286;19;20082;-84
2022/12/19 11:03:44;;;;;;;8.18;3.90;;;10.60;81.70;;;;;;7372524;19;20078;-82
2022/12/19 11:06:49;;;;;;;8.98;4.55;;;10.60;81.60;;;;;;7372361;19;20011;-81
2022/12/19 11:09:29;;;;;;;7.07;4.10;;;10.60;81.60;;;;;;7369733;19;20531;-83
2022/12/19 11:12:01;;;;;;;11.77;4.10;;;10.60;81.60;;;;;;7372885;19;20090;-83
2022/12/19 11:14:33;;;;;;;7.43;4.40;;;10.60;81.70;;;;;;7396112;19;20031;-80
2022/12/19 11:17:03;;;;;;;10.00;4.30;;;10.60;81.70;;;;;;7397123;19;20007;-86
2022/12/19 11:19:35;;;;;;;11.13;4.50;;;10.70;81.60;;;;;;7379528;19;19995;-84
2022/12/19 11:22:07;;;;;;;9.95;4.30;;;10.70;81.60;;;;;;7393308;19;20022;-81
2022/12/19 11:24:41;;;;;;;7.07;3.83;;;10.70;81.40;;;;;;7370453;19;20117;-83
2022/12/19 11:27:37;;;;;;;7.40;4.35;;;10.70;81.40;;;;;;7368881;19;20014;-80
2022/12/19 11:30:22;;;;;;;7.60;3.95;;;10.70;81.70;;;;;;7368773;19;20022;-82
2022/12/19 11:33:08;;;;;;;10.95;4.55;;;10.70;81.60;;;;;;7369851;19;20105;-83
2022/12/19 11:35:49;;;;;;;7.32;4.40;;;10.70;81.60;;;;;;7370204;19;20407;-85
2022/12/19 11:38:22;;;;;;;7.68;4.15;;;10.70;81.70;;;;;;7372672;19;20030;-87
2022/12/19 11:40:57;;;;;;;6.40;3.72;;;10.80;81.60;;;;;;7371020;19;20070;-84
2022/12/19 11:43:31;;;;;;;14.32;4.70;;;10.80;81.60;;;;;;7369407;19;20022;-83
2022/12/19 11:46:09;;;;;;;7.80;4.30;;;10.80;81.50;;;;;;7391262;19;20864;-82
2022/12/19 11:48:42;;;;;;;10.93;4.28;;;10.80;81.40;;;;;;7368932;19;20018;-82
2022/12/19 11:51:20;;;;;;;8.98;3.95;;;10.90;81.30;;;;;;7368898;19;20019;-82
2022/12/19 11:54:03;;;;;;;10.40;4.20;;;10.90;81.40;;;;;;7373716;19;20038;-82
2022/12/19 11:56:32;;;;;;;6.88;3.50;;;10.90;81.40;;;;;;7374484;19;20466;-83
2022/12/19 11:59:09;;;;;;;10.07;4.07;;;10.90;81.40;;;;;;7368878;19;20098;-84
2022/12/19 12:01:53;;;;;;;6.00;3.65;;;10.90;81.40;;;;;;7371618;19;20102;-83
2022/12/19 12:04:46;;;;;;;8.80;3.40;;;11.00;81.30;;;;;;7370625;19;20023;-83
2022/12/19 12:07:16;;;;;;;8.00;3.53;;;10.90;81.30;;;;;;7369143;19;20064;-81
2022/12/19 12:09:51;;;;;;;7.85;3.83;;;10.90;81.10;;;;;;7391970;19;20022;-81
2022/12/19 12:12:25;;;;;;;6.68;3.25;;;11.00;81.20;;;;;;7369953;19;20078;-82
2022/12/19 12:15:11;;;;;;;5.97;3.38;;;10.90;81.10;;;;;;7369404;19;20078;-81
2022/12/19 12:17:53;;;;;;;5.10;3.10;;;11.00;81.50;;;;;;7373013;19;20084;-83
2022/12/19 12:20:33;;;;;;;15.40;3.33;;;11.00;81.30;;;;;;7370213;19;20130;-85
2022/12/19 12:23:17;;;;;;;6.00;3.40;;;10.90;81.70;;;;;;7379505;19;20097;-89
2022/12/19 12:25:56;;;;;;;7.75;3.22;;;11.00;81.60;;;;;;7376775;19;20478;-82
2022/12/19 12:28:50;;;;;;;8.45;3.58;;;11.10;81.30;;;;;;7371508;19;20014;-85
2022/12/19 12:31:36;;;;;;;6.40;3.45;;;11.10;81.20;;;;;;7376801;19;20043;-83
2022/12/19 12:34:39;;;;;;;8.50;3.63;;;11.10;81.10;;;;;;7397811;19;20039;-83
2022/12/19 12:37:19;;;;;;;8.88;4.05;;;11.20;81.20;;;;;;7270066;19;2004688;-84
2022/12/19 12:39:59;;;;;;;9.15;3.90;;;11.20;81.80;;;;;;7394145;19;20418;-81
2022/12/19 12:42:45;;;;;;;7.20;4.18;;;11.30;81.10;;;;;;7377544;19;20015;-86
2022/12/19 12:45:22;;;;;;;9.15;3.72;;;11.30;81.10;;;;;;7377913;19;20031;-88
2022/12/19 12:47:54;;;;;;;7.95;4.40;;;11.20;81.40;;;;;;7400431;19;20015;-86
2022/12/19 12:50:27;;;;;;;10.55;4.22;;;11.30;81.40;;;;;;7402211;19;20010;-87
2022/12/19 12:52:59;;;;;;;5.85;3.72;;;11.30;81.20;;;;;;7374697;19;20050;-83
2022/12/19 12:55:31;;;;;;;10.23;3.60;;;11.30;81.20;;;;;;7377416;19;20015;-85
2022/12/19 12:57:59;;;;;;;;;;;11.30;81.40;;;;;;7399172;19;20043;-84
2022/12/19 13:00:30;;;;;;;11.75;2.70;;;11.40;81.90;;;;;;7378638;19;19919;-86
2022/12/19 13:03:06;;;;;;;9.35;3.65;;;11.40;81.20;;;;;;7380413;19;20010;-85
2022/12/19 13:05:51;;;;;;;4.53;3.20;;;11.50;81.50;;;;;;7380685;19;20014;-90
2022/12/19 13:08:46;;;;;;;7.35;3.78;;;11.50;81.30;;;;;;7389560;19;20018;-87
2022/12/19 13:14:48;;;;;;;7.30;3.63;;;11.70;81.00;;;;;;7385368;19;20021;-86
2022/12/19 13:17:25;;;;;;;6.68;2.70;;;11.80;80.80;;;;;;7380972;19;20018;-83
2022/12/19 13:19:57;;;;;;;7.60;3.17;;;11.70;80.70;;;;;;7375425;19;20015;-86